createdAt,value
2022-11-05T00:01:56.320Z,97.00
2022-11-05T00:05:16.656Z,97.00
2022-11-05T00:08:37.232Z,97.00
2022-11-05T00:11:59.029Z,97.20
2022-11-05T00:15:34.214Z,98.70
2022-11-05T00:18:37.458Z,99.10
2022-11-05T00:21:58.720Z,99.60
2022-11-05T00:25:19.987Z,99.10
2022-11-05T00:28:24.520Z,98.70
2022-11-05T00:31:27.668Z,99.10
2022-11-05T00:34:30.858Z,97.90
2022-11-05T00:37:34.072Z,97.40
2022-11-05T00:40:37.389Z,97.30
2022-11-05T00:43:59.141Z,97.10
2022-11-05T00:47:16.275Z,97.00
2022-11-05T00:50:20.604Z,97.00
2022-11-05T00:53:23.861Z,96.90
2022-11-05T00:56:26.999Z,96.80
2022-11-05T00:59:31.521Z,96.70
2022-11-05T01:02:34.770Z,96.80
2022-11-05T01:05:42.608Z,96.60
2022-11-05T01:08:47.335Z,96.60
2022-11-05T01:11:51.437Z,96.60
2022-11-05T01:14:55.950Z,96.70
2022-11-05T01:17:59.095Z,96.50
2022-11-05T01:21:10.534Z,96.20
2022-11-05T01:24:13.654Z,96.20
2022-11-05T01:27:16.858Z,96.10
2022-11-05T01:30:21.879Z,95.90
2022-11-05T01:33:25.264Z,96.10
2022-11-05T01:36:28.385Z,95.80
2022-11-05T01:39:31.500Z,95.40
2022-11-05T01:42:34.710Z,95.50
2022-11-05T01:45:39.219Z,95.40
2022-11-05T01:48:42.507Z,95.20
2022-11-05T01:51:46.965Z,95.10
2022-11-05T01:54:50.147Z,95.00
2022-11-05T01:57:54.708Z,94.70
2022-11-05T02:00:59.435Z,94.40
2022-11-05T02:04:06.358Z,94.70
2022-11-05T02:07:11.603Z,94.50
2022-11-05T02:10:18.094Z,94.50
2022-11-05T02:13:21.229Z,94.80
2022-11-05T02:16:38.752Z,94.20
2022-11-05T02:20:10.882Z,94.20
2022-11-05T02:23:50.562Z,94.10
2022-11-05T02:27:08.082Z,94.10
2022-11-05T02:30:35.958Z,94.00
2022-11-05T02:33:45.479Z,93.90
2022-11-05T02:36:55.644Z,94.00
2022-11-05T02:40:12.424Z,94.90
2022-11-05T02:43:25.789Z,94.70
2022-11-05T02:46:39.975Z,94.60
2022-11-05T02:49:50.127Z,94.90
2022-11-05T02:53:00.477Z,94.40
2022-11-05T02:56:09.046Z,94.40
2022-11-05T02:59:12.155Z,94.40
2022-11-05T03:02:16.942Z,94.50
2022-11-05T03:05:21.748Z,94.70
2022-11-05T03:08:37.431Z,94.90
2022-11-05T03:11:49.840Z,95.10
2022-11-05T03:15:00.277Z,95.70
2022-11-05T03:18:13.081Z,96.10
2022-11-05T03:21:21.697Z,96.60
2022-11-05T03:24:28.632Z,96.70
2022-11-05T03:27:34.627Z,97.10
2022-11-05T03:30:41.165Z,97.30
2022-11-05T03:33:46.727Z,97.10
2022-11-05T03:36:53.888Z,97.00
2022-11-05T03:40:01.484Z,96.90
2022-11-05T03:43:08.792Z,96.60
2022-11-05T03:46:18.110Z,96.70
2022-11-05T03:49:26.421Z,96.90
2022-11-05T03:52:34.849Z,97.00
2022-11-05T03:55:44.450Z,97.20
2022-11-05T03:58:50.626Z,97.20
2022-11-05T04:01:57.505Z,97.30
2022-11-05T04:05:02.081Z,97.00
2022-11-05T04:08:22.764Z,96.20
2022-11-05T04:11:43.277Z,96.00
2022-11-05T04:14:46.357Z,95.90
2022-11-05T04:17:48.476Z,95.70
2022-11-05T04:21:10.363Z,95.60
2022-11-05T04:24:14.749Z,95.30
2022-11-05T04:27:17.844Z,95.40
2022-11-05T04:30:21.851Z,95.20
2022-11-05T04:33:25.105Z,95.20
2022-11-05T04:36:30.065Z,95.30
2022-11-05T04:39:33.129Z,95.40
2022-11-05T04:42:36.246Z,95.40
2022-11-05T04:45:39.320Z,95.10
2022-11-05T04:48:42.470Z,95.00
2022-11-05T04:51:46.937Z,95.00
2022-11-05T04:54:50.003Z,94.90
2022-11-05T04:57:54.481Z,94.80
2022-11-05T05:00:57.649Z,94.70
2022-11-05T05:04:00.799Z,94.80
2022-11-05T05:07:05.354Z,94.50
2022-11-05T05:10:09.624Z,94.60
2022-11-05T05:13:13.523Z,94.60
2022-11-05T05:16:20.950Z,94.80
2022-11-05T05:19:25.529Z,94.60
2022-11-05T05:22:29.222Z,94.60
2022-11-05T05:25:32.586Z,94.50
2022-11-05T05:28:35.704Z,94.40
2022-11-05T05:31:39.192Z,94.30
2022-11-05T05:34:42.321Z,94.60
2022-11-05T05:37:46.947Z,94.60
2022-11-05T05:40:50.816Z,94.30
2022-11-05T05:43:54.133Z,94.00
2022-11-05T05:46:57.279Z,94.00
2022-11-05T05:50:00.392Z,94.30
2022-11-05T05:53:04.857Z,94.30
2022-11-05T05:56:08.531Z,94.40
2022-11-05T05:59:11.687Z,94.50
2022-11-05T06:02:14.835Z,94.60
2022-11-05T06:05:18.077Z,94.70
2022-11-05T06:08:22.578Z,95.00
2022-11-05T06:11:26.450Z,94.50
2022-11-05T06:14:29.556Z,94.50
2022-11-05T06:17:34.387Z,94.60
2022-11-05T06:20:37.493Z,94.60
2022-11-05T06:23:43.645Z,94.30
2022-11-05T06:26:46.776Z,94.30
2022-11-05T06:29:49.917Z,94.30
2022-11-05T06:32:53.071Z,94.50
2022-11-05T06:35:59.078Z,94.10
2022-11-05T06:39:03.558Z,94.10
2022-11-05T06:42:22.086Z,93.80
2022-11-05T06:45:25.256Z,94.20
2022-11-05T06:48:28.915Z,94.30
2022-11-05T06:51:32.019Z,94.50
2022-11-05T06:54:36.522Z,94.40
2022-11-05T06:57:39.854Z,94.40
2022-11-05T07:00:43.219Z,94.10
2022-11-05T07:03:49.005Z,93.90
2022-11-05T07:06:52.135Z,93.70
2022-11-05T07:09:56.653Z,93.60
2022-11-05T07:13:07.840Z,93.30
2022-11-05T07:16:11.878Z,93.40
2022-11-05T07:19:15.006Z,93.20
2022-11-05T07:22:18.150Z,93.10
2022-11-05T07:25:22.706Z,92.80
2022-11-05T07:28:25.866Z,92.50
2022-11-05T07:31:29.008Z,92.40
2022-11-05T07:34:32.482Z,92.00
2022-11-05T07:37:42.916Z,92.10
2022-11-05T07:40:47.382Z,91.60
2022-11-05T07:43:50.508Z,91.10
2022-11-05T07:46:53.711Z,90.80
2022-11-05T07:49:56.835Z,90.40
2022-11-05T07:53:04.327Z,90.30
2022-11-05T07:56:09.174Z,89.80
2022-11-05T07:59:12.263Z,89.40
2022-11-05T08:02:15.564Z,90.20
2022-11-05T08:05:18.855Z,89.40
2022-11-05T08:08:22.100Z,89.70
2022-11-05T08:11:26.640Z,89.40
2022-11-05T08:14:29.818Z,87.30
2022-11-05T08:17:32.986Z,87.50
2022-11-05T08:20:37.040Z,88.20
2022-11-05T08:23:40.205Z,88.90
2022-11-05T08:26:44.660Z,88.10
2022-11-05T08:29:47.799Z,88.80
2022-11-05T08:32:50.971Z,88.00
2022-11-05T08:35:54.435Z,87.60
2022-11-05T08:38:57.568Z,87.30
2022-11-05T08:42:02.051Z,87.00
2022-11-05T08:45:05.850Z,86.20
2022-11-05T08:48:11.302Z,85.70
2022-11-05T08:51:14.465Z,86.20
2022-11-05T08:54:17.777Z,84.60
2022-11-05T08:57:22.273Z,85.30
2022-11-05T09:00:25.620Z,85.10
2022-11-05T09:03:28.731Z,84.30
2022-11-05T09:06:31.901Z,83.90
2022-11-05T09:09:35.058Z,84.90
2022-11-05T09:12:39.732Z,82.70
2022-11-05T09:15:43.071Z,82.90
2022-11-05T09:18:46.230Z,83.10
2022-11-05T09:21:49.368Z,82.60
2022-11-05T09:24:52.555Z,81.80
2022-11-05T09:28:13.384Z,81.90
2022-11-05T09:31:19.271Z,81.30
2022-11-05T09:34:22.413Z,81.40
2022-11-05T09:37:25.506Z,82.80
2022-11-05T09:40:31.013Z,82.60
2022-11-05T09:43:41.570Z,81.20
2022-11-05T09:46:49.152Z,81.20
2022-11-05T09:49:55.454Z,80.60
2022-11-05T09:52:58.999Z,81.10
2022-11-05T09:56:02.371Z,81.30
2022-11-05T09:59:15.591Z,81.70
2022-11-05T10:02:22.922Z,81.30
2022-11-05T10:05:28.195Z,82.00
2022-11-05T10:08:35.896Z,82.30
2022-11-05T10:11:43.888Z,82.10
2022-11-05T10:14:52.798Z,81.80
2022-11-05T10:18:00.008Z,81.40
2022-11-05T10:21:03.656Z,80.20
2022-11-05T10:24:13.943Z,81.60
2022-11-05T10:27:21.457Z,81.40
2022-11-05T10:30:26.387Z,80.20
2022-11-05T10:33:33.973Z,81.30
2022-11-05T10:36:39.282Z,79.80
2022-11-05T10:39:42.465Z,80.80
2022-11-05T10:42:55.665Z,79.70
2022-11-05T10:46:11.280Z,79.50
2022-11-05T10:49:42.049Z,79.70
2022-11-05T10:52:54.957Z,78.90
2022-11-05T10:55:58.592Z,79.60
2022-11-05T10:59:06.680Z,79.70
2022-11-05T11:02:24.761Z,78.70
2022-11-05T11:05:31.614Z,78.30
2022-11-05T11:08:37.188Z,78.60
2022-11-05T11:11:43.302Z,78.00
2022-11-05T11:15:01.821Z,77.30
2022-11-05T11:21:33.988Z,76.80
2022-11-05T11:24:40.297Z,77.30
2022-11-05T11:27:43.604Z,76.80
2022-11-05T11:30:51.335Z,76.20
2022-11-05T11:34:01.081Z,76.40
2022-11-05T11:37:08.762Z,76.10
2022-11-05T11:40:17.817Z,75.90
2022-11-05T11:43:28.128Z,75.90
2022-11-05T11:46:34.111Z,75.70
2022-11-05T11:49:45.735Z,74.70
2022-11-05T11:52:50.245Z,74.80
2022-11-05T11:56:06.050Z,75.40
2022-11-05T11:59:18.216Z,74.50
2022-11-05T12:02:47.547Z,74.10
2022-11-05T12:05:59.665Z,73.50
2022-11-05T12:09:13.162Z,73.30
2022-11-05T12:12:19.145Z,72.70
2022-11-05T12:15:35.674Z,72.30
2022-11-05T12:18:45.534Z,70.50
2022-11-05T12:22:00.630Z,68.60
2022-11-05T12:25:23.744Z,65.80
2022-11-05T12:29:17.793Z,61.80
2022-11-05T12:32:36.368Z,59.10
2022-11-05T12:35:57.749Z,59.00
2022-11-05T12:39:39.367Z,58.90
2022-11-05T12:42:58.010Z,58.30
2022-11-05T12:46:07.206Z,59.20
2022-11-05T12:49:46.763Z,59.60
2022-11-05T12:53:24.786Z,61.40
2022-11-05T12:56:34.557Z,63.80
2022-11-05T12:59:44.625Z,63.40
2022-11-05T13:02:54.137Z,64.30
2022-11-05T13:06:06.471Z,64.80
2022-11-05T13:09:14.856Z,64.20
2022-11-05T13:12:23.439Z,64.90
2022-11-05T13:15:33.482Z,63.90
2022-11-05T13:18:41.677Z,65.90
2022-11-05T13:21:48.709Z,67.20
2022-11-05T13:24:54.726Z,67.40
2022-11-05T13:28:15.546Z,67.00
2022-11-05T13:31:25.726Z,67.80
2022-11-05T13:34:33.458Z,67.50
2022-11-05T13:38:02.395Z,67.90
2022-11-05T13:41:25.804Z,67.80
2022-11-05T13:44:48.690Z,68.20
2022-11-05T13:48:12.276Z,67.80
2022-11-05T13:51:50.464Z,68.00
2022-11-05T13:55:24.623Z,67.30
2022-11-05T13:58:53.534Z,66.50
2022-11-05T14:02:00.268Z,65.90
2022-11-05T14:05:09.211Z,65.20
2022-11-05T14:08:18.595Z,65.30
2022-11-05T14:11:25.158Z,66.40
2022-11-05T14:14:31.612Z,66.50
2022-11-05T14:17:55.232Z,66.10
2022-11-05T14:21:01.956Z,65.90
2022-11-05T14:24:26.696Z,66.60
2022-11-05T14:27:54.719Z,67.60
2022-11-05T14:30:58.283Z,67.30
2022-11-05T14:34:17.624Z,67.60
2022-11-05T14:37:37.901Z,67.00
2022-11-05T14:40:44.247Z,67.30
2022-11-05T14:43:55.142Z,67.50
2022-11-05T14:47:01.981Z,67.30
2022-11-05T14:50:11.656Z,67.50
2022-11-05T14:53:31.773Z,67.00
2022-11-05T14:56:45.438Z,67.60
2022-11-05T14:59:54.589Z,67.60
2022-11-05T15:03:01.884Z,67.70
2022-11-05T15:06:21.142Z,68.20
2022-11-05T15:09:35.362Z,67.90
2022-11-05T15:12:43.934Z,67.60
2022-11-05T15:15:50.940Z,68.10
2022-11-05T15:18:57.113Z,68.60
2022-11-05T15:22:05.978Z,68.80
2022-11-05T15:25:20.032Z,69.90
2022-11-05T15:28:32.145Z,68.60
2022-11-05T15:31:41.293Z,68.90
2022-11-05T15:34:52.648Z,69.50
2022-11-05T15:38:02.065Z,70.20
2022-11-05T15:41:16.896Z,70.70
2022-11-05T15:44:28.955Z,70.60
2022-11-05T15:47:34.554Z,70.40
2022-11-05T15:50:38.749Z,70.50
2022-11-05T15:57:27.457Z,71.20
2022-11-05T16:00:33.415Z,73.30
2022-11-05T16:03:40.880Z,72.40
2022-11-05T16:06:48.409Z,73.70
2022-11-05T16:09:54.673Z,74.60
2022-11-05T16:13:21.056Z,73.80
2022-11-05T16:16:34.682Z,74.70
2022-11-05T16:19:42.402Z,73.90
2022-11-05T16:22:47.341Z,74.40
2022-11-05T16:25:51.648Z,72.20
2022-11-05T16:28:57.198Z,72.40
2022-11-05T16:32:03.569Z,72.60
2022-11-05T16:35:09.166Z,72.70
2022-11-05T16:38:15.284Z,73.60
2022-11-05T16:41:21.293Z,74.10
2022-11-05T16:44:26.557Z,74.10
2022-11-05T16:47:31.727Z,74.50
2022-11-05T16:50:36.403Z,74.40
2022-11-05T16:53:40.086Z,74.60
2022-11-05T16:56:44.082Z,74.70
2022-11-05T16:59:52.825Z,75.50
2022-11-05T17:02:57.398Z,75.40
2022-11-05T17:06:01.410Z,75.60
2022-11-05T17:09:05.810Z,75.10
2022-11-05T17:12:12.391Z,75.60
2022-11-05T17:15:26.147Z,76.50
2022-11-05T17:18:30.588Z,76.80
2022-11-05T17:21:34.966Z,76.80
2022-11-05T17:24:39.996Z,76.40
2022-11-05T17:27:44.335Z,76.80
2022-11-05T17:30:53.184Z,76.70
2022-11-05T17:33:58.253Z,76.70
2022-11-05T17:37:02.471Z,76.60
2022-11-05T17:40:11.924Z,77.40
2022-11-05T17:43:17.718Z,77.50
2022-11-05T17:46:23.698Z,77.90
2022-11-05T17:49:27.997Z,78.90
2022-11-05T17:52:32.684Z,78.90
2022-11-05T17:55:36.961Z,79.20
2022-11-05T17:58:41.254Z,79.60
2022-11-05T18:01:46.899Z,80.00
2022-11-05T18:04:52.026Z,80.20
2022-11-05T18:07:57.030Z,80.50
2022-11-05T18:11:00.967Z,80.80
2022-11-05T18:14:05.555Z,81.30
2022-11-05T18:17:14.487Z,81.40
2022-11-05T18:20:19.708Z,81.40
2022-11-05T18:23:25.012Z,82.00
2022-11-05T18:26:29.641Z,82.20
2022-11-05T18:29:38.155Z,82.50
2022-11-05T18:32:44.818Z,82.60
2022-11-05T18:35:49.695Z,82.60
2022-11-05T18:38:54.380Z,82.70
2022-11-05T18:41:58.333Z,82.90
2022-11-05T18:45:02.715Z,83.30
2022-11-05T18:48:11.418Z,83.80
2022-11-05T18:51:17.482Z,84.60
2022-11-05T18:54:21.948Z,85.10
2022-11-05T18:57:27.920Z,86.00
2022-11-05T19:00:32.177Z,86.20
2022-11-05T19:03:38.330Z,87.30
2022-11-05T19:06:44.309Z,88.00
2022-11-05T19:09:48.020Z,88.80
2022-11-05T19:12:51.912Z,89.30
2022-11-05T19:15:55.988Z,89.40
2022-11-05T19:19:02.977Z,90.00
2022-11-05T19:22:07.620Z,90.20
2022-11-05T19:25:13.140Z,90.70
2022-11-05T19:28:17.839Z,90.80
2022-11-05T19:31:24.143Z,91.10
2022-11-05T19:34:32.804Z,91.50
2022-11-05T19:37:37.568Z,91.70
2022-11-05T19:40:41.901Z,91.70
2022-11-05T19:43:47.604Z,92.00
2022-11-05T19:46:52.157Z,92.30
2022-11-05T19:50:01.027Z,92.30
2022-11-05T19:53:06.530Z,92.60
2022-11-05T19:56:13.041Z,92.90
2022-11-05T19:59:19.904Z,93.20
2022-11-05T20:02:24.062Z,93.50
2022-11-05T20:05:30.755Z,94.10
2022-11-05T20:08:43.494Z,94.30
2022-11-05T20:11:58.845Z,94.40
2022-11-05T20:15:04.396Z,94.80
2022-11-05T20:18:11.812Z,94.90
2022-11-05T20:21:18.777Z,95.10
2022-11-05T20:24:25.511Z,95.30
2022-11-05T20:27:30.414Z,95.40
2022-11-05T20:30:35.194Z,95.50
2022-11-05T20:33:41.490Z,95.50
2022-11-05T20:36:47.430Z,95.60
2022-11-05T20:39:51.511Z,95.80
2022-11-05T20:42:57.164Z,96.00
2022-11-05T20:46:01.189Z,96.00
2022-11-05T20:49:05.557Z,96.30
2022-11-05T20:52:12.571Z,96.30
2022-11-05T20:55:17.144Z,96.40
2022-11-05T20:58:23.181Z,96.70
2022-11-05T21:01:28.010Z,96.70
2022-11-05T21:04:33.532Z,96.90
2022-11-05T21:07:39.161Z,97.10
2022-11-05T21:10:47.177Z,97.30
2022-11-05T21:13:55.079Z,97.50
2022-11-05T21:17:00.721Z,97.50
2022-11-05T21:20:04.980Z,97.60
2022-11-05T21:23:10.523Z,97.70
2022-11-05T21:26:18.198Z,97.70
2022-11-05T21:29:22.077Z,97.90
2022-11-05T21:32:26.334Z,97.90
2022-11-05T21:35:30.177Z,98.10
2022-11-05T21:38:36.101Z,98.10
2022-11-05T21:41:40.013Z,98.10
2022-11-05T21:44:43.568Z,98.10
2022-11-05T21:47:47.410Z,98.10
2022-11-05T21:51:15.676Z,98.10
2022-11-05T21:54:38.503Z,98.30
2022-11-05T21:58:00.085Z,98.30
2022-11-05T22:01:04.271Z,98.50
2022-11-05T22:04:08.796Z,98.60
2022-11-05T22:07:13.672Z,98.50
2022-11-05T22:10:18.390Z,98.50
2022-11-05T22:13:21.631Z,98.60
2022-11-05T22:16:25.271Z,98.80
2022-11-05T22:19:28.839Z,98.80
2022-11-05T22:22:32.160Z,98.80
2022-11-05T22:25:37.735Z,99.30
2022-11-05T22:28:40.949Z,99.10
2022-11-05T22:31:44.211Z,99.10
2022-11-05T22:34:49.130Z,99.40
2022-11-05T22:37:52.362Z,99.30
2022-11-05T22:40:56.911Z,99.30
2022-11-05T22:44:00.186Z,99.40
2022-11-05T22:47:03.350Z,99.30
2022-11-05T22:50:07.352Z,99.30
2022-11-05T22:53:10.494Z,99.50
2022-11-05T22:56:17.211Z,99.50
2022-11-05T22:59:20.569Z,99.60
2022-11-05T23:02:23.822Z,99.70
2022-11-05T23:05:27.128Z,99.80
2022-11-05T23:08:48.794Z,99.60
2022-11-05T23:11:57.368Z,99.70
2022-11-05T23:15:02.431Z,99.90
2022-11-05T23:18:23.104Z,99.90
2022-11-05T23:21:43.604Z,99.90
2022-11-05T23:24:48.006Z,99.90
2022-11-05T23:27:55.217Z,99.90
2022-11-05T23:31:15.749Z,99.90
2022-11-05T23:34:18.839Z,99.90
2022-11-05T23:37:40.525Z,99.90
2022-11-05T23:40:57.492Z,99.90
2022-11-05T23:44:19.574Z,99.90
2022-11-05T23:47:40.208Z,99.90
2022-11-05T23:50:43.905Z,99.90
2022-11-05T23:53:47.003Z,99.90
2022-11-05T23:56:50.122Z,99.90
2022-11-05T23:59:54.618Z,99.90
